createdAt,value
2019-05-23T00:00:08.316Z,23.2
2019-05-23T00:00:58.390Z,23.2
2019-05-23T00:01:48.586Z,23.2
2019-05-23T00:02:38.541Z,23.2
2019-05-23T00:03:28.642Z,23.2
2019-05-23T00:04:18.653Z,23.2
2019-05-23T00:05:08.707Z,23.2
2019-05-23T00:05:58.497Z,23.2
2019-05-23T00:06:48.890Z,23.1
2019-05-23T00:07:38.905Z,23.1
2019-05-23T00:08:28.896Z,23.1
2019-05-23T00:09:18.747Z,23.1
2019-05-23T00:10:08.822Z,23.2
2019-05-23T00:10:58.637Z,23.1
2019-05-23T00:11:49.227Z,23.1
2019-05-23T00:12:38.737Z,23.1
2019-05-23T00:13:28.820Z,23.1
2019-05-23T00:14:19.393Z,23.2
2019-05-23T00:15:09.460Z,23.1
2019-05-23T00:15:59.532Z,23.1
2019-05-23T00:16:49.320Z,23.1
2019-05-23T00:17:39.464Z,23.1
2019-05-23T00:18:29.442Z,23.1
2019-05-23T00:19:19.629Z,23.1
2019-05-23T00:20:09.580Z,23.1
2019-05-23T00:20:59.659Z,23.1
2019-05-23T00:21:49.965Z,23.1
2019-05-23T00:22:39.841Z,23.1
2019-05-23T00:23:30.097Z,23.1
2019-05-23T00:24:20.167Z,23.1
2019-05-23T00:25:10.269Z,23.1
2019-05-23T00:26:00.037Z,23.1
2019-05-23T00:26:50.346Z,23.1
2019-05-23T00:27:40.406Z,23.1
2019-05-23T00:28:30.463Z,23.1
2019-05-23T00:29:20.266Z,23.1
2019-05-23T00:30:10.329Z,23.1
2019-05-23T00:31:00.419Z,23.1
2019-05-23T00:31:50.736Z,23.1
2019-05-23T00:32:40.806Z,23.1
2019-05-23T00:33:30.841Z,23.1
2019-05-23T00:34:20.911Z,23.1
2019-05-23T00:35:10.986Z,23.1
2019-05-23T00:36:00.503Z,23.1
2019-05-23T00:36:51.151Z,23.1
2019-05-23T00:37:41.180Z,23.1
2019-05-23T00:38:31.406Z,23.1
2019-05-23T00:39:20.795Z,23.1
2019-05-23T00:40:11.187Z,23.1
2019-05-23T00:41:01.483Z,23.1
2019-05-23T00:41:51.509Z,23.1
2019-05-23T00:42:41.287Z,23.1
2019-05-23T00:43:31.270Z,23.1
2019-05-23T00:44:21.405Z,23.1
2019-05-23T00:45:11.472Z,23.1
2019-05-23T00:46:01.807Z,23.1
2019-05-23T00:46:51.609Z,23.1
2019-05-23T00:47:41.940Z,23.1
2019-05-23T00:48:31.997Z,23.1
2019-05-23T00:49:21.760Z,23.1
2019-05-23T00:50:12.134Z,23.1
2019-05-23T00:51:06.444Z,23.1
2019-05-23T00:51:51.702Z,23.1
2019-05-23T00:52:42.305Z,23.1
2019-05-23T00:53:32.380Z,23.1
2019-05-23T00:54:22.182Z,23.1
2019-05-23T00:55:12.495Z,23.1
2019-05-23T00:56:02.644Z,23
2019-05-23T00:56:52.349Z,23.1
2019-05-23T00:57:42.450Z,23.1
2019-05-23T00:58:32.218Z,23
2019-05-23T00:59:29.097Z,23.1
2019-05-23T01:00:12.622Z,23
2019-05-23T01:01:03.017Z,23
2019-05-23T01:01:53.009Z,23.1
2019-05-23T01:02:43.073Z,23
2019-05-23T01:03:32.933Z,23
2019-05-23T01:04:23.002Z,23.1
2019-05-23T01:05:12.724Z,23.1
2019-05-23T01:06:03.085Z,23
2019-05-23T01:06:53.362Z,23
2019-05-23T01:07:43.159Z,23
2019-05-23T01:08:33.289Z,23
2019-05-23T01:09:22.779Z,23
2019-05-23T01:10:13.359Z,23
2019-05-23T01:11:03.415Z,23
2019-05-23T01:11:53.766Z,23
2019-05-23T01:12:43.562Z,23
2019-05-23T01:13:33.921Z,23
2019-05-23T01:14:23.417Z,23
2019-05-23T01:15:14.049Z,23
2019-05-23T01:16:03.811Z,23
2019-05-23T01:16:54.166Z,23
2019-05-23T01:17:43.656Z,23
2019-05-23T01:18:33.988Z,23
2019-05-23T01:19:24.376Z,23
2019-05-23T01:20:14.395Z,23
2019-05-23T01:21:04.191Z,23
2019-05-23T01:21:54.236Z,23
2019-05-23T01:22:44.586Z,23
2019-05-23T01:23:34.668Z,23
2019-05-23T01:24:24.185Z,23
2019-05-23T01:25:14.517Z,23
2019-05-23T01:26:04.585Z,22.9
2019-05-23T01:26:54.885Z,22.9
2019-05-23T01:27:44.953Z,23
2019-05-23T01:28:35.053Z,23
2019-05-23T01:29:24.540Z,23
2019-05-23T01:30:15.138Z,23
2019-05-23T01:31:04.400Z,22.9
2019-05-23T01:31:54.996Z,23
2019-05-23T01:32:45.330Z,22.9
2019-05-23T01:33:35.395Z,22.9
2019-05-23T01:34:24.941Z,23
2019-05-23T01:35:15.535Z,22.9
2019-05-23T01:36:05.329Z,22.9
2019-05-23T01:36:55.441Z,23
2019-05-23T01:37:45.450Z,23
2019-05-23T01:38:35.505Z,22.9
2019-05-23T01:39:25.842Z,23
2019-05-23T01:40:15.699Z,22.9
2019-05-23T01:41:05.965Z,23
2019-05-23T01:41:56.053Z,22.9
2019-05-23T01:42:46.097Z,23
2019-05-23T01:43:36.155Z,22.9
2019-05-23T01:44:25.952Z,23
2019-05-23T01:45:16.444Z,22.9
2019-05-23T01:46:06.353Z,22.9
2019-05-23T01:46:55.879Z,23
2019-05-23T01:47:46.212Z,23
2019-05-23T01:48:36.269Z,22.9
2019-05-23T01:49:26.594Z,23
2019-05-23T01:50:16.451Z,23
2019-05-23T01:51:06.465Z,23
2019-05-23T01:51:56.808Z,23
2019-05-23T01:52:46.866Z,23
2019-05-23T01:53:36.931Z,23
2019-05-23T01:54:26.991Z,23
2019-05-23T01:55:16.519Z,23
2019-05-23T01:56:07.111Z,23
2019-05-23T01:56:56.911Z,23
2019-05-23T01:57:46.989Z,23
2019-05-23T01:58:37.302Z,23
2019-05-23T01:59:26.828Z,23
2019-05-23T02:00:17.138Z,23
2019-05-23T02:01:07.476Z,23
2019-05-23T02:01:57.559Z,23
2019-05-23T02:02:47.061Z,23
2019-05-23T02:03:37.403Z,23
2019-05-23T02:04:27.725Z,23
2019-05-23T02:05:17.533Z,23
2019-05-23T02:06:07.899Z,23
2019-05-23T02:06:58.292Z,23
2019-05-23T02:07:47.455Z,23
2019-05-23T02:08:38.065Z,23
2019-05-23T02:09:27.638Z,23.1
2019-05-23T02:10:18.193Z,23
2019-05-23T02:11:07.707Z,23
2019-05-23T02:11:57.784Z,23
2019-05-23T02:12:48.355Z,23
2019-05-23T02:13:38.174Z,23.1
2019-05-23T02:14:28.236Z,23.1
2019-05-23T02:15:18.603Z,23
2019-05-23T02:16:08.093Z,23
2019-05-23T02:16:58.418Z,23
2019-05-23T02:17:48.743Z,23
2019-05-23T02:18:38.529Z,23
2019-05-23T02:19:28.622Z,23.1
2019-05-23T02:20:18.692Z,23
2019-05-23T02:21:08.990Z,23.1
2019-05-23T02:21:59.082Z,23
2019-05-23T02:22:49.262Z,23
2019-05-23T02:23:39.193Z,23.1
2019-05-23T02:24:28.738Z,23
2019-05-23T02:25:19.340Z,23.1
2019-05-23T02:26:09.507Z,23.1
2019-05-23T02:26:59.439Z,23.1
2019-05-23T02:27:49.520Z,23.1
2019-05-23T02:28:39.566Z,23.1
2019-05-23T02:29:29.688Z,23.1
2019-05-23T02:30:36.950Z,23.1
2019-05-23T02:31:59.825Z,23.1
2019-05-23T02:32:49.641Z,23.1
2019-05-23T02:33:39.972Z,23.1
2019-05-23T02:34:30.029Z,23.1
2019-05-23T02:35:20.070Z,23.1
2019-05-23T02:36:10.142Z,23.1
2019-05-23T02:36:59.708Z,23.1
2019-05-23T02:37:50.301Z,23.1
2019-05-23T02:38:40.087Z,23.1
2019-05-23T02:39:30.119Z,23.1
2019-05-23T02:40:20.461Z,23.1
2019-05-23T02:41:10.517Z,23.1
2019-05-23T02:42:00.336Z,23.1
2019-05-23T02:42:50.431Z,23.1
2019-05-23T02:43:40.455Z,23.1
2019-05-23T02:44:30.544Z,23.1
2019-05-23T02:45:20.843Z,23.1
2019-05-23T02:46:10.650Z,23
2019-05-23T02:47:00.711Z,23.1
2019-05-23T02:47:51.037Z,23.1
2019-05-23T02:48:40.801Z,23.1
2019-05-23T02:49:31.166Z,23.1
2019-05-23T02:50:21.241Z,23.1
2019-05-23T02:51:11.285Z,23.1
2019-05-23T02:52:01.341Z,23.1
2019-05-23T02:52:51.431Z,23.1
2019-05-23T02:53:40.958Z,23.1
2019-05-23T02:54:31.283Z,23.1
2019-05-23T02:55:21.595Z,23.1
2019-05-23T02:56:11.381Z,23.1
2019-05-23T02:57:01.490Z,23.1
2019-05-23T02:57:51.848Z,23.1
2019-05-23T02:58:41.576Z,23.1
2019-05-23T02:59:31.917Z,23.1
2019-05-23T03:00:21.723Z,23.1
2019-05-23T03:01:12.058Z,23.1
2019-05-23T03:02:02.159Z,23.1
2019-05-23T03:02:51.726Z,23.1
2019-05-23T03:06:20.940Z,23.1
2019-05-23T03:07:10.997Z,23.1
2019-05-23T03:08:01.334Z,23.1
2019-05-23T03:08:50.853Z,23.1
2019-05-23T03:09:41.185Z,23.1
2019-05-23T03:10:31.249Z,23.1
2019-05-23T03:11:21.574Z,23.1
2019-05-23T03:12:11.656Z,23.1
2019-05-23T03:13:01.690Z,23.1
2019-05-23T03:13:51.750Z,23.1
2019-05-23T03:14:41.810Z,23.1
2019-05-23T03:15:31.877Z,23.1
2019-05-23T03:16:21.437Z,23.1
2019-05-23T03:17:12.018Z,23.1
2019-05-23T03:18:01.830Z,23.1
2019-05-23T03:18:52.138Z,23
2019-05-23T03:19:42.159Z,23.1
2019-05-23T03:20:32.033Z,23.1
2019-05-23T03:21:22.322Z,23.1
2019-05-23T03:22:12.120Z,23.1
2019-05-23T03:23:02.471Z,23.1
2019-05-23T03:23:52.000Z,23.1
2019-05-23T03:24:42.317Z,23.1
2019-05-23T03:25:32.620Z,23.1
2019-05-23T03:26:22.442Z,23.1
2019-05-23T03:27:12.816Z,23.1
2019-05-23T03:28:02.848Z,23.1
2019-05-23T03:28:52.437Z,23.1
2019-05-23T03:29:42.665Z,23.1
2019-05-23T03:30:32.505Z,23.1
2019-05-23T03:31:34.268Z,23.1
2019-05-23T03:32:12.939Z,23.1
2019-05-23T03:33:03.236Z,23.1
2019-05-23T03:33:53.519Z,23.1
2019-05-23T03:34:43.391Z,23.1
2019-05-23T03:35:33.240Z,23.1
2019-05-23T03:36:23.459Z,23.1
2019-05-23T03:37:13.501Z,23.1
2019-05-23T03:38:03.599Z,23.1
2019-05-23T03:38:53.654Z,23.1
2019-05-23T03:39:43.463Z,23.1
2019-05-23T03:40:33.752Z,23.1
2019-05-23T03:41:23.836Z,23.1
2019-05-23T03:42:13.874Z,23.1
2019-05-23T03:43:03.967Z,23.1
2019-05-23T03:43:53.501Z,23.1
2019-05-23T03:44:43.807Z,23.1
2019-05-23T03:45:40.258Z,23.1
2019-05-23T03:46:24.188Z,23.1
2019-05-23T03:47:14.288Z,23.1
2019-05-23T03:48:04.350Z,23.1
2019-05-23T03:48:53.843Z,23.1
2019-05-23T03:49:44.467Z,23.1
2019-05-23T03:50:34.587Z,23.1
2019-05-23T03:51:24.576Z,23.1
2019-05-23T03:52:14.635Z,23.1
2019-05-23T03:53:04.720Z,23.1
2019-05-23T03:53:54.492Z,23.1
2019-05-23T03:54:44.542Z,23.1
2019-05-23T03:55:34.614Z,23.1
2019-05-23T03:56:25.087Z,23.1
2019-05-23T03:57:15.020Z,23.1
2019-05-23T03:58:05.127Z,23.1
2019-05-23T03:58:55.171Z,23.1
2019-05-23T03:59:44.648Z,23.1
2019-05-23T04:00:35.301Z,23.1
2019-05-23T04:01:43.958Z,23.1
2019-05-23T04:03:05.807Z,23.1
2019-05-23T04:03:55.599Z,23.1
2019-05-23T04:04:45.315Z,23.1
2019-05-23T04:05:35.683Z,23.1
2019-05-23T04:06:25.435Z,23.1
2019-05-23T04:07:15.526Z,23.1
2019-05-23T04:08:05.359Z,23.1
2019-05-23T04:08:55.635Z,23.1
2019-05-23T04:09:46.108Z,23.1
2019-05-23T04:10:35.759Z,23.1
2019-05-23T04:11:26.096Z,23.1
2019-05-23T04:12:15.667Z,23.1
2019-05-23T04:13:05.950Z,23.1
2019-05-23T04:13:56.026Z,23.1
2019-05-23T04:14:46.346Z,23.1
2019-05-23T04:15:36.145Z,23.1
2019-05-23T04:16:31.728Z,23.1
2019-05-23T04:17:16.569Z,23.1
2019-05-23T04:18:06.378Z,23.1
2019-05-23T04:18:56.682Z,23.1
2019-05-23T04:19:45.963Z,23.1
2019-05-23T04:20:36.573Z,23.1
2019-05-23T04:21:26.856Z,23.1
2019-05-23T04:22:16.629Z,23.1
2019-05-23T04:23:06.976Z,23.1
2019-05-23T04:23:56.328Z,23.1
2019-05-23T04:24:47.095Z,23.1
2019-05-23T04:25:36.913Z,23.1
2019-05-23T04:26:27.320Z,23.1
2019-05-23T04:27:17.314Z,23.1
2019-05-23T04:28:07.401Z,23.1
2019-05-23T04:28:57.146Z,23.1
2019-05-23T04:29:47.471Z,23.1
2019-05-23T04:30:37.533Z,23.1
2019-05-23T04:31:27.669Z,23.1
2019-05-23T04:32:17.689Z,23.1
2019-05-23T04:33:07.747Z,23.1
2019-05-23T04:33:57.511Z,23.1
2019-05-23T04:34:47.860Z,23.1
2019-05-23T04:35:37.422Z,23.1
2019-05-23T04:36:27.987Z,23.1
2019-05-23T04:37:18.087Z,23.1
2019-05-23T04:38:08.206Z,23.1
2019-05-23T04:38:57.932Z,23.1
2019-05-23T04:39:48.248Z,23.1
2019-05-23T04:40:37.772Z,23.1
2019-05-23T04:41:28.416Z,23.1
2019-05-23T04:42:18.179Z,23.1
2019-05-23T04:43:08.517Z,23.1
2019-05-23T04:43:58.562Z,23.1
2019-05-23T04:44:48.642Z,23.1
2019-05-23T04:45:38.431Z,23.1
2019-05-23T04:46:28.732Z,23.1
2019-05-23T04:47:18.861Z,23.1
2019-05-23T04:48:08.881Z,23.1
2019-05-23T04:48:58.931Z,23.1
2019-05-23T04:49:49.050Z,23.1
2019-05-23T04:50:39.107Z,23.1
2019-05-23T04:51:29.187Z,23.1
2019-05-23T04:52:18.909Z,23.1
2019-05-23T04:53:08.794Z,23.1
2019-05-23T04:53:59.344Z,23.1
2019-05-23T04:54:49.381Z,23.1
2019-05-23T04:55:39.463Z,23.1
2019-05-23T04:56:29.483Z,23.1
2019-05-23T04:57:19.562Z,23.1
2019-05-23T04:58:09.369Z,23.1
2019-05-23T04:58:59.697Z,23.2
2019-05-23T04:59:49.752Z,23.1
2019-05-23T05:00:39.789Z,23.1
2019-05-23T05:01:29.888Z,23.1
2019-05-23T05:02:28.353Z,23.1
2019-05-23T05:03:09.731Z,23.2
2019-05-23T05:04:00.122Z,23.2
2019-05-23T05:04:49.643Z,23.2
2019-05-23T05:05:40.296Z,23.2
2019-05-23T05:06:29.731Z,23.2
2019-05-23T05:07:20.058Z,23.2
2019-05-23T05:08:10.723Z,23.2
2019-05-23T05:09:00.183Z,23.2
2019-05-23T05:09:50.503Z,23.2
2019-05-23T05:10:40.301Z,23.1
2019-05-23T05:11:31.899Z,23.2
2019-05-23T05:12:20.400Z,23.2
2019-05-23T05:13:10.737Z,23.2
2019-05-23T05:14:00.914Z,23.2
2019-05-23T05:14:50.393Z,23.1
2019-05-23T05:15:40.971Z,23.1
2019-05-23T05:16:30.983Z,23.2
2019-05-23T05:17:21.088Z,23.2
2019-05-23T05:18:11.136Z,23.2
2019-05-23T05:19:01.220Z,23.2
2019-05-23T05:19:51.243Z,23.1
2019-05-23T05:20:41.336Z,23.2
2019-05-23T05:21:30.845Z,23.2
2019-05-23T05:22:21.440Z,23.2
2019-05-23T05:23:11.502Z,23.2
2019-05-23T05:24:01.287Z,23.2
2019-05-23T05:24:51.616Z,23.1
2019-05-23T05:25:41.677Z,23.1
2019-05-23T05:26:31.229Z,23.2
2019-05-23T05:27:21.620Z,23.1
2019-05-23T05:28:11.879Z,23.1
2019-05-23T05:29:01.688Z,23.1
2019-05-23T05:29:51.997Z,23.1
2019-05-23T05:30:42.136Z,23.2
2019-05-23T05:31:32.182Z,23.1
2019-05-23T05:32:21.939Z,23.1
2019-05-23T05:33:12.259Z,23.1
2019-05-23T05:34:01.801Z,23.1
2019-05-23T05:34:52.387Z,23.1
2019-05-23T05:35:42.442Z,23.1
2019-05-23T05:36:32.254Z,23.1
2019-05-23T05:37:22.619Z,23.1
2019-05-23T05:38:12.376Z,23.1
2019-05-23T05:39:02.155Z,23.1
2019-05-23T05:39:52.751Z,23.1
2019-05-23T05:40:42.821Z,23.1
2019-05-23T05:41:32.940Z,23.1
2019-05-23T05:42:22.945Z,23.1
2019-05-23T05:43:13.035Z,23.1
2019-05-23T05:44:03.134Z,23.1
2019-05-23T05:44:53.211Z,23.1
2019-05-23T05:45:43.208Z,23.1
2019-05-23T05:46:33.278Z,23.1
2019-05-23T05:47:23.325Z,23.1
2019-05-23T05:48:13.462Z,23.1
2019-05-23T05:49:03.419Z,23.1
2019-05-23T05:49:53.188Z,23.1
2019-05-23T05:50:43.307Z,23.1
2019-05-23T05:51:33.105Z,23.1
2019-05-23T05:52:23.422Z,23.1
2019-05-23T05:53:13.503Z,23.1
2019-05-23T05:54:04.259Z,23.1
2019-05-23T05:54:53.885Z,23.1
2019-05-23T05:55:43.751Z,23.1
2019-05-23T05:56:33.760Z,23.1
2019-05-23T05:57:24.072Z,23.1
2019-05-23T05:58:14.155Z,23.1
2019-05-23T05:59:03.973Z,23.1
2019-05-23T05:59:54.310Z,23.1
2019-05-23T06:00:44.356Z,23.1
2019-05-23T06:01:35.833Z,23.1
2019-05-23T06:02:24.482Z,23.1
2019-05-23T06:04:21.090Z,23.1
2019-05-23T06:05:10.872Z,23.1
2019-05-23T06:06:00.664Z,23.1
2019-05-23T06:06:51.247Z,23.1
2019-05-23T06:07:41.312Z,23.1
2019-05-23T06:08:31.446Z,23.1
2019-05-23T06:09:21.464Z,23.1
2019-05-23T06:10:11.549Z,23.1
2019-05-23T06:11:01.303Z,23.1
2019-05-23T06:11:51.649Z,23.1
2019-05-23T06:12:41.717Z,23.1
2019-05-23T06:13:31.297Z,23.1
2019-05-23T06:14:21.605Z,23.1
2019-05-23T06:15:11.968Z,23.1
2019-05-23T06:16:01.747Z,23.1
2019-05-23T06:16:52.190Z,23.1
2019-05-23T06:17:42.087Z,23.1
2019-05-23T06:18:32.166Z,23.1
2019-05-23T06:19:21.967Z,23.1
2019-05-23T06:20:12.087Z,23.1
2019-05-23T06:21:02.352Z,23.1
2019-05-23T06:21:52.157Z,23.1
2019-05-23T06:22:42.518Z,23.1
2019-05-23T06:23:32.528Z,23.1
2019-05-23T06:24:57.807Z,23.1
2019-05-23T06:26:02.726Z,23.1
2019-05-23T06:26:52.774Z,23.1
2019-05-23T06:27:42.832Z,23.1
2019-05-23T06:28:32.658Z,23.1
2019-05-23T06:29:24.715Z,23.1
2019-05-23T06:30:13.100Z,23.1
2019-05-23T06:31:03.092Z,23.1
2019-05-23T06:31:52.945Z,23.1
2019-05-23T06:32:43.248Z,23.1
2019-05-23T06:33:33.031Z,23.1
2019-05-23T06:34:23.351Z,23.1
2019-05-23T06:35:13.143Z,23.1
2019-05-23T06:36:03.512Z,23.1
2019-05-23T06:36:53.590Z,23.1
2019-05-23T06:37:43.792Z,23.1
2019-05-23T06:38:33.667Z,23.1
2019-05-23T06:39:23.768Z,23.1
2019-05-23T06:40:13.532Z,23
2019-05-23T06:41:03.847Z,23
2019-05-23T06:41:53.910Z,23.1
2019-05-23T06:42:44.283Z,23.1
2019-05-23T06:43:33.504Z,23.1
2019-05-23T06:44:23.559Z,23.1
2019-05-23T06:45:13.887Z,23.1
2019-05-23T06:46:03.960Z,23.1
2019-05-23T06:46:54.277Z,23.1
2019-05-23T06:47:44.365Z,23.1
2019-05-23T06:48:34.396Z,23.1
2019-05-23T06:49:24.185Z,23.1
2019-05-23T06:50:14.553Z,23.1
2019-05-23T06:51:04.948Z,23.1
2019-05-23T06:51:54.659Z,23.1
2019-05-23T06:52:44.773Z,23.1
2019-05-23T06:53:34.777Z,23.1
2019-05-23T06:54:24.572Z,23.1
2019-05-23T06:55:14.924Z,23.1
2019-05-23T06:56:04.710Z,23.1
2019-05-23T06:56:55.027Z,23.1
2019-05-23T06:57:45.089Z,23.1
2019-05-23T06:58:35.159Z,23.1
2019-05-23T06:59:24.984Z,23.1
2019-05-23T07:00:14.761Z,23.1
2019-05-23T07:01:05.289Z,23.1
2019-05-23T07:01:55.146Z,23.1
2019-05-23T07:04:20.771Z,23.1
2019-05-23T07:05:11.109Z,23.2
2019-05-23T07:06:01.347Z,22.7
2019-05-23T07:06:50.951Z,40.3
2019-05-23T07:07:41.025Z,57.1
2019-05-23T07:08:31.363Z,61.1
2019-05-23T07:09:21.357Z,61.3
2019-05-23T07:10:11.559Z,59.5
2019-05-23T07:11:01.025Z,56.1
2019-05-23T07:11:51.325Z,54.2
2019-05-23T07:12:41.131Z,53.1
2019-05-23T07:13:31.438Z,52.3
2019-05-23T07:14:21.264Z,51.6
2019-05-23T07:15:11.860Z,51
2019-05-23T07:16:01.920Z,50.4
2019-05-23T07:16:52.053Z,49.8
2019-05-23T07:17:41.757Z,49.2
2019-05-23T07:18:32.174Z,48.6
2019-05-23T07:19:22.190Z,48.1
2019-05-23T07:20:12.370Z,47.5
2019-05-23T07:21:02.310Z,47
2019-05-23T07:21:52.092Z,46.4
2019-05-23T07:22:42.455Z,45.9
2019-05-23T07:23:32.452Z,45.4
2019-05-23T07:24:22.554Z,44.9
2019-05-23T07:25:12.610Z,44.5
2019-05-23T07:26:03.192Z,44.1
2019-05-23T07:26:52.788Z,43.6
2019-05-23T07:27:42.900Z,43.3
2019-05-23T07:28:32.320Z,42.8
2019-05-23T07:29:22.932Z,42.4
2019-05-23T07:30:13.295Z,42
2019-05-23T07:31:03.097Z,41.6
2019-05-23T07:31:53.372Z,41.3
2019-05-23T07:32:42.949Z,46.5
2019-05-23T07:33:33.275Z,52.9
2019-05-23T07:34:23.319Z,64.1
2019-05-23T07:35:13.376Z,65.9
2019-05-23T07:36:03.209Z,63.6
2019-05-23T07:36:53.239Z,61.8
2019-05-23T07:37:43.587Z,60.7
2019-05-23T07:38:33.369Z,59.9
2019-05-23T07:39:23.447Z,59.2
2019-05-23T07:40:13.529Z,58.4
2019-05-23T07:41:03.869Z,57.6
2019-05-23T07:41:53.637Z,56.8
2019-05-23T07:42:43.954Z,56.1
2019-05-23T07:43:33.966Z,55.3
2019-05-23T07:44:24.146Z,54.6
2019-05-23T07:45:13.896Z,53.9
2019-05-23T07:46:03.984Z,53.3
2019-05-23T07:46:54.098Z,52.6
2019-05-23T07:47:44.346Z,52
2019-05-23T07:48:34.413Z,51.3
2019-05-23T07:49:24.536Z,50.7
2019-05-23T07:50:14.621Z,50.1
2019-05-23T07:51:04.316Z,49.6
2019-05-23T07:51:54.638Z,49
2019-05-23T07:52:44.712Z,48.4
2019-05-23T07:53:34.804Z,47.9
2019-05-23T07:54:24.835Z,47.4
2019-05-23T07:55:14.632Z,46.9
2019-05-23T07:56:04.455Z,46.4
2019-05-23T07:56:54.747Z,46
2019-05-23T07:57:45.063Z,45.5
2019-05-23T07:58:35.168Z,45.1
2019-05-23T07:59:25.281Z,47.9
2019-05-23T08:00:15.305Z,54.6
2019-05-23T08:01:05.375Z,64.1
2019-05-23T08:01:55.418Z,66.3
2019-05-23T08:02:45.492Z,65.6
2019-05-23T08:03:35.257Z,63.2
2019-05-23T08:04:25.610Z,61.1
2019-05-23T08:05:15.737Z,60
2019-05-23T08:06:05.930Z,59.2
2019-05-23T08:06:55.523Z,58.5
2019-05-23T08:07:46.260Z,57.9
2019-05-23T08:08:35.922Z,57.1
2019-05-23T08:09:25.992Z,56.4
2019-05-23T08:10:35.374Z,55.7
2019-05-23T08:11:56.198Z,54.3
2019-05-23T08:12:46.285Z,53.6
2019-05-23T08:13:36.300Z,53
2019-05-23T08:15:16.436Z,52.8
2019-05-23T08:16:06.737Z,54.3
2019-05-23T08:16:56.577Z,64.1
2019-05-23T08:17:46.355Z,69.2
2019-05-23T08:18:36.192Z,69.6
2019-05-23T08:19:26.484Z,68.5
2019-05-23T08:20:16.604Z,65.7
2019-05-23T08:21:06.618Z,62.8
2019-05-23T08:21:56.992Z,61.3
2019-05-23T08:22:46.481Z,61.9
2019-05-23T08:23:36.521Z,63.5
2019-05-23T08:24:27.144Z,65
2019-05-23T08:25:16.951Z,65.9
2019-05-23T08:26:06.998Z,66.1
2019-05-23T08:26:57.345Z,65.8
2019-05-23T08:27:47.397Z,65.1
2019-05-23T08:30:21.223Z,65.1
2019-05-23T08:31:11.268Z,65.8
2019-05-23T08:32:01.422Z,65.6
2019-05-23T08:32:51.400Z,65.1
2019-05-23T08:33:41.522Z,65.1
2019-05-23T08:34:44.054Z,65.2
2019-05-23T08:35:21.634Z,65.3
2019-05-23T08:36:11.573Z,65.4
2019-05-23T08:37:01.471Z,65.1
2019-05-23T08:37:51.831Z,64.4
2019-05-23T08:38:41.582Z,63.3
2019-05-23T08:39:31.683Z,62.1
2019-05-23T08:40:22.014Z,61.1
2019-05-23T08:41:11.489Z,60.1
2019-05-23T08:42:02.418Z,59.1
2019-05-23T08:42:52.338Z,58.3
2019-05-23T08:43:42.285Z,57.5
2019-05-23T08:44:31.801Z,56.8
2019-05-23T08:45:22.129Z,56.3
2019-05-23T08:46:12.167Z,55.8
2019-05-23T08:47:02.578Z,55.1
2019-05-23T08:47:52.094Z,54.5
2019-05-23T08:48:42.617Z,53.9
2019-05-23T08:49:32.693Z,55
2019-05-23T08:50:22.779Z,58.2
2019-05-23T08:51:12.557Z,65.9
2019-05-23T08:52:02.355Z,68.7
2019-05-23T08:52:52.670Z,69
2019-05-23T08:53:43.215Z,67.8
2019-05-23T08:54:33.053Z,64.9
2019-05-23T08:55:22.862Z,62
2019-05-23T08:56:20.940Z,60.9
2019-05-23T08:57:03.250Z,62
2019-05-23T08:57:53.429Z,63.4
2019-05-23T08:58:43.385Z,64.8
2019-05-23T08:59:33.482Z,65.8
2019-05-23T09:00:23.390Z,65.9
2019-05-23T09:01:13.602Z,65.2
2019-05-23T09:02:02.826Z,63.3
2019-05-23T09:02:57.622Z,61.4
2019-05-23T09:03:43.495Z,61.1
2019-05-23T09:04:33.803Z,61.2
2019-05-23T09:05:23.615Z,60.8
2019-05-23T09:06:14.185Z,60
2019-05-23T09:07:04.349Z,59.2
2019-05-23T09:09:33.934Z,55.1
2019-05-23T09:10:24.010Z,53.9
2019-05-23T09:11:13.778Z,52.9
2019-05-23T09:12:04.413Z,52.3
2019-05-23T09:12:54.198Z,52.4
2019-05-23T09:13:44.627Z,55.3
2019-05-23T09:14:34.401Z,62.9
2019-05-23T09:15:24.385Z,68.8
2019-05-23T09:16:14.463Z,69.4
2019-05-23T09:17:04.503Z,68.3
2019-05-23T09:17:55.760Z,65.7
2019-05-23T09:18:44.354Z,62.7
2019-05-23T09:19:34.969Z,60.9
2019-05-23T09:20:24.217Z,61.2
2019-05-23T09:21:14.830Z,62.6
2019-05-23T09:22:04.919Z,64.1
2019-05-23T09:22:55.282Z,64.9
2019-05-23T09:23:45.569Z,65
2019-05-23T09:24:35.080Z,64.5
2019-05-23T09:25:25.136Z,63.8
2019-05-23T09:26:15.499Z,63.4
2019-05-23T09:27:05.524Z,63.3
2019-05-23T09:27:55.593Z,63.6
2019-05-23T09:28:45.698Z,64.1
2019-05-23T09:29:35.725Z,64.6
2019-05-23T09:30:25.804Z,64.8
2019-05-23T09:31:15.589Z,64.6
2019-05-23T09:32:05.918Z,64.2
2019-05-23T09:32:55.977Z,63.8
2019-05-23T09:33:46.041Z,63.6
2019-05-23T09:34:36.094Z,63.7
2019-05-23T09:35:25.986Z,63.3
2019-05-23T09:36:16.333Z,62.5
2019-05-23T09:37:06.046Z,61.9
2019-05-23T09:37:56.120Z,61.8
2019-05-23T09:38:46.948Z,62.1
2019-05-23T09:39:36.491Z,62.6
2019-05-23T09:40:26.562Z,63.1
2019-05-23T09:41:16.648Z,63.4
2019-05-23T09:42:06.736Z,63.4
2019-05-23T09:42:56.614Z,63.1
2019-05-23T09:43:46.258Z,62.4
2019-05-23T09:44:36.933Z,62.4
2019-05-23T09:45:26.666Z,62.8
2019-05-23T09:46:17.022Z,63.1
2019-05-23T09:47:07.048Z,63.5
2019-05-23T09:47:56.850Z,63.9
2019-05-23T09:48:47.223Z,64.1
2019-05-23T09:49:37.259Z,64.3
2019-05-23T09:50:27.335Z,64.3
2019-05-23T09:51:17.129Z,64.3
2019-05-23T09:52:07.671Z,64.5
2019-05-23T09:52:57.505Z,64.7
2019-05-23T09:53:48.925Z,65
2019-05-23T09:54:37.676Z,65.3
2019-05-23T09:55:27.699Z,65.4
2019-05-23T09:57:07.607Z,65.8
2019-05-23T09:57:58.042Z,65.6
2019-05-23T09:58:47.970Z,65.5
2019-05-23T09:59:38.109Z,65.8
2019-05-23T10:00:28.489Z,66.1
2019-05-23T10:01:18.489Z,66.4
2019-05-23T10:02:08.001Z,66.6
2019-05-23T10:02:58.261Z,66.8
2019-05-23T10:05:44.639Z,67.1
2019-05-23T10:07:00.821Z,67.4
2019-05-23T10:07:50.850Z,67.6
2019-05-23T10:08:41.187Z,67.9
2019-05-23T10:09:31.365Z,68
2019-05-23T10:10:21.350Z,68.1
2019-05-23T10:11:11.385Z,68.3
2019-05-23T10:12:01.420Z,68.3
2019-05-23T10:12:51.503Z,68.3
2019-05-23T10:13:41.614Z,68.5
2019-05-23T10:14:31.342Z,68.6
2019-05-23T10:15:21.448Z,68.9
2019-05-23T10:16:11.961Z,68.5
2019-05-23T10:17:01.549Z,67.4
2019-05-23T10:17:51.895Z,66.7
2019-05-23T10:18:41.941Z,66.4
2019-05-23T10:19:31.989Z,66.6
2019-05-23T10:20:22.096Z,67.4
2019-05-23T10:21:12.141Z,68.1
2019-05-23T10:22:02.213Z,68.7
2019-05-23T10:22:52.003Z,68.9
2019-05-23T10:23:42.073Z,68.9
2019-05-23T10:24:32.398Z,68.8
2019-05-23T10:25:22.181Z,68.7
2019-05-23T10:26:12.536Z,68.8
2019-05-23T10:27:02.593Z,68.9
2019-05-23T10:27:56.299Z,69.2
2019-05-23T10:28:42.448Z,69.4
2019-05-23T10:29:32.523Z,69.6
2019-05-23T10:30:22.860Z,69.7
2019-05-23T10:31:12.935Z,69.8
2019-05-23T10:32:02.968Z,69.8
2019-05-23T10:32:52.880Z,69.8
2019-05-23T10:33:43.099Z,69.9
2019-05-23T10:34:33.243Z,69.9
2019-05-23T10:35:23.227Z,70.1
2019-05-23T10:36:12.745Z,70.1
2019-05-23T10:37:03.353Z,70.2
2019-05-23T10:37:53.507Z,70.3
2019-05-23T10:38:43.497Z,70.3
2019-05-23T10:39:33.275Z,70.4
2019-05-23T10:40:23.104Z,70.4
2019-05-23T10:41:13.686Z,70.5
2019-05-23T10:42:03.755Z,70.5
2019-05-23T10:42:53.893Z,70.6
2019-05-23T10:43:43.305Z,70.6
2019-05-23T10:44:33.937Z,70.7
2019-05-23T10:45:23.694Z,70.8
2019-05-23T10:46:14.059Z,70.8
2019-05-23T10:47:03.587Z,70.8
2019-05-23T10:47:54.176Z,70.8
2019-05-23T10:48:44.006Z,70.8
2019-05-23T10:49:34.324Z,70.8
2019-05-23T10:50:24.456Z,70.9
2019-05-23T10:51:14.141Z,70.9
2019-05-23T10:52:04.508Z,70.9
2019-05-23T10:52:54.285Z,70.9
2019-05-23T10:53:44.372Z,71
2019-05-23T10:54:34.710Z,71
2019-05-23T10:55:24.533Z,71.1
2019-05-23T10:56:19.473Z,71.1
2019-05-23T10:57:04.796Z,71.2
2019-05-23T10:57:54.956Z,71.3
2019-05-23T10:58:44.767Z,71.3
2019-05-23T10:59:35.072Z,71.3
2019-05-23T11:00:24.882Z,71.4
2019-05-23T11:01:15.263Z,71.4
2019-05-23T11:02:05.266Z,71.4
2019-05-23T11:02:54.884Z,71.3
2019-05-23T11:03:45.399Z,71.4
2019-05-23T11:04:35.486Z,71.4
2019-05-23T11:05:25.245Z,71.4
2019-05-23T11:06:18.101Z,71.4
2019-05-23T11:07:05.657Z,71.3
2019-05-23T11:07:55.769Z,71.3
2019-05-23T11:08:45.584Z,71.2
2019-05-23T11:09:39.752Z,71.2
2019-05-23T11:10:25.989Z,71.2
2019-05-23T11:11:16.668Z,71.3
2019-05-23T11:12:06.231Z,71.3
2019-05-23T11:12:56.112Z,71.3
2019-05-23T11:13:46.215Z,71.4
2019-05-23T11:14:36.286Z,71.5
2019-05-23T11:15:26.054Z,71.6
2019-05-23T11:16:16.397Z,71.7
2019-05-23T11:17:06.443Z,71.7
2019-05-23T11:17:56.216Z,71.6
2019-05-23T11:18:46.038Z,71.4
2019-05-23T11:19:37.012Z,71.3
2019-05-23T11:20:26.716Z,71.1
2019-05-23T11:21:16.775Z,71.1
2019-05-23T11:22:06.918Z,71
2019-05-23T11:22:56.859Z,70.9
2019-05-23T11:23:46.731Z,70.7
2019-05-23T11:24:36.799Z,70.3
2019-05-23T11:25:26.831Z,69.9
2019-05-23T11:26:17.124Z,69.5
2019-05-23T11:27:07.256Z,69
2019-05-23T11:27:57.274Z,68.8